sensor_id;sensor_type;location;lat;lon;timestamp;P1;durP1;ratioP1;P2;durP2;ratioP2
59974;SDS011;62136;-35.664;-63.766;2023-02-04T00:00:19;1.33;;;1.20;;
59974;SDS011;62136;-35.664;-63.766;2023-02-04T00:02:50;1.48;;;1.15;;
59974;SDS011;62136;-35.664;-63.766;2023-02-04T00:05:17;1.50;;;1.20;;
59974;SDS011;62136;-35.664;-63.766;2023-02-04T00:07:45;1.55;;;1.20;;
59974;SDS011;62136;-35.664;-63.766;2023-02-04T00:10:12;2.20;;;1.40;;
59974;SDS011;62136;-35.664;-63.766;2023-02-04T00:12:39;2.05;;;1.40;;
59974;SDS011;62136;-35.664;-63.766;2023-02-04T00:15:06;2.03;;;1.60;;
59974;SDS011;62136;-35.664;-63.766;2023-02-04T00:17:35;2.00;;;1.50;;
59974;SDS011;62136;-35.664;-63.766;2023-02-04T00:20:02;1.77;;;1.27;;
59974;SDS011;62136;-35.664;-63.766;2023-02-04T00:22:29;1.70;;;1.60;;
59974;SDS011;62136;-35.664;-63.766;2023-02-04T00:24:56;2.85;;;1.73;;
59974;SDS011;62136;-35.664;-63.766;2023-02-04T00:27:23;1.63;;;1.40;;
59974;SDS011;62136;-35.664;-63.766;2023-02-04T00:29:50;2.15;;;1.23;;
59974;SDS011;62136;-35.664;-63.766;2023-02-04T00:32:17;2.13;;;1.55;;
59974;SDS011;62136;-35.664;-63.766;2023-02-04T00:34:45;1.60;;;1.50;;
59974;SDS011;62136;-35.664;-63.766;2023-02-04T00:37:12;3.15;;;1.65;;
59974;SDS011;62136;-35.664;-63.766;2023-02-04T00:39:39;1.77;;;1.48;;
59974;SDS011;62136;-35.664;-63.766;2023-02-04T00:42:06;2.80;;;1.60;;
59974;SDS011;62136;-35.664;-63.766;2023-02-04T00:44:33;2.17;;;1.83;;
59974;SDS011;62136;-35.664;-63.766;2023-02-04T00:47:01;3.28;;;1.67;;
59974;SDS011;62136;-35.664;-63.766;2023-02-04T00:49:28;2.72;;;1.42;;
59974;SDS011;62136;-35.664;-63.766;2023-02-04T00:51:55;2.28;;;1.50;;
59974;SDS011;62136;-35.664;-63.766;2023-02-04T00:54:22;1.90;;;1.50;;
59974;SDS011;62136;-35.664;-63.766;2023-02-04T00:56:49;2.40;;;1.63;;
59974;SDS011;62136;-35.664;-63.766;2023-02-04T00:59:16;2.47;;;1.65;;
59974;SDS011;62136;-35.664;-63.766;2023-02-04T01:01:43;2.10;;;1.75;;
59974;SDS011;62136;-35.664;-63.766;2023-02-04T01:04:10;1.83;;;1.65;;
59974;SDS011;62136;-35.664;-63.766;2023-02-04T01:06:37;2.08;;;1.70;;
59974;SDS011;62136;-35.664;-63.766;2023-02-04T01:09:04;2.42;;;1.70;;
59974;SDS011;62136;-35.664;-63.766;2023-02-04T01:11:31;2.90;;;1.70;;
59974;SDS011;62136;-35.664;-63.766;2023-02-04T01:13:58;2.65;;;1.75;;
59974;SDS011;62136;-35.664;-63.766;2023-02-04T01:16:25;2.90;;;1.90;;
59974;SDS011;62136;-35.664;-63.766;2023-02-04T01:18:53;2.80;;;1.70;;
59974;SDS011;62136;-35.664;-63.766;2023-02-04T01:21:23;1.90;;;1.70;;
59974;SDS011;62136;-35.664;-63.766;2023-02-04T01:23:51;2.65;;;1.70;;
59974;SDS011;62136;-35.664;-63.766;2023-02-04T01:26:18;3.22;;;1.67;;
59974;SDS011;62136;-35.664;-63.766;2023-02-04T01:28:45;2.63;;;2.10;;
59974;SDS011;62136;-35.664;-63.766;2023-02-04T01:31:12;3.15;;;1.70;;
59974;SDS011;62136;-35.664;-63.766;2023-02-04T01:33:40;2.50;;;2.08;;
59974;SDS011;62136;-35.664;-63.766;2023-02-04T01:36:07;2.97;;;1.88;;
59974;SDS011;62136;-35.664;-63.766;2023-02-04T01:38:34;2.67;;;2.08;;
59974;SDS011;62136;-35.664;-63.766;2023-02-04T01:41:01;2.15;;;1.95;;
59974;SDS011;62136;-35.664;-63.766;2023-02-04T01:43:32;2.08;;;1.88;;
59974;SDS011;62136;-35.664;-63.766;2023-02-04T01:46:02;3.55;;;2.05;;
59974;SDS011;62136;-35.664;-63.766;2023-02-04T01:48:29;2.53;;;2.08;;
59974;SDS011;62136;-35.664;-63.766;2023-02-04T01:51:04;2.95;;;1.85;;
59974;SDS011;62136;-35.664;-63.766;2023-02-04T01:53:39;2.55;;;1.85;;
59974;SDS011;62136;-35.664;-63.766;2023-02-04T01:56:17;2.58;;;1.77;;
59974;SDS011;62136;-35.664;-63.766;2023-02-04T01:58:51;2.58;;;2.10;;
59974;SDS011;62136;-35.664;-63.766;2023-02-04T02:01:36;2.00;;;1.80;;
59974;SDS011;62136;-35.664;-63.766;2023-02-04T02:04:08;3.17;;;2.60;;
59974;SDS011;62136;-35.664;-63.766;2023-02-04T02:06:37;2.55;;;2.28;;
59974;SDS011;62136;-35.664;-63.766;2023-02-04T02:09:07;2.22;;;2.00;;
59974;SDS011;62136;-35.664;-63.766;2023-02-04T02:11:34;2.58;;;2.00;;
59974;SDS011;62136;-35.664;-63.766;2023-02-04T02:14:02;3.67;;;2.10;;
59974;SDS011;62136;-35.664;-63.766;2023-02-04T02:16:32;4.03;;;2.35;;
59974;SDS011;62136;-35.664;-63.766;2023-02-04T02:18:59;3.83;;;2.40;;
59974;SDS011;62136;-35.664;-63.766;2023-02-04T02:21:29;3.03;;;2.13;;
59974;SDS011;62136;-35.664;-63.766;2023-02-04T02:24:16;3.60;;;2.85;;
59974;SDS011;62136;-35.664;-63.766;2023-02-04T02:27:02;2.28;;;2.05;;
59974;SDS011;62136;-35.664;-63.766;2023-02-04T02:29:32;2.85;;;2.25;;
59974;SDS011;62136;-35.664;-63.766;2023-02-04T02:32:03;3.85;;;2.50;;
59974;SDS011;62136;-35.664;-63.766;2023-02-04T02:34:31;3.70;;;2.55;;
59974;SDS011;62136;-35.664;-63.766;2023-02-04T02:36:59;3.50;;;2.72;;
59974;SDS011;62136;-35.664;-63.766;2023-02-04T02:39:27;3.10;;;2.45;;
59974;SDS011;62136;-35.664;-63.766;2023-02-04T02:41:55;4.28;;;2.80;;
59974;SDS011;62136;-35.664;-63.766;2023-02-04T02:44:23;3.88;;;2.65;;
59974;SDS011;62136;-35.664;-63.766;2023-02-04T02:46:52;3.63;;;2.55;;
59974;SDS011;62136;-35.664;-63.766;2023-02-04T02:49:19;4.63;;;2.70;;
59974;SDS011;62136;-35.664;-63.766;2023-02-04T02:51:47;3.80;;;2.28;;
59974;SDS011;62136;-35.664;-63.766;2023-02-04T02:54:21;2.55;;;2.35;;
59974;SDS011;62136;-35.664;-63.766;2023-02-04T02:56:51;5.90;;;2.45;;
59974;SDS011;62136;-35.664;-63.766;2023-02-04T02:59:19;3.58;;;2.63;;
59974;SDS011;62136;-35.664;-63.766;2023-02-04T03:01:47;2.95;;;2.42;;
59974;SDS011;62136;-35.664;-63.766;2023-02-04T03:04:16;3.00;;;2.40;;
59974;SDS011;62136;-35.664;-63.766;2023-02-04T03:06:45;3.03;;;2.60;;
59974;SDS011;62136;-35.664;-63.766;2023-02-04T03:09:20;2.78;;;2.45;;
59974;SDS011;62136;-35.664;-63.766;2023-02-04T03:11:50;3.55;;;2.58;;
59974;SDS011;62136;-35.664;-63.766;2023-02-04T03:14:17;3.13;;;2.47;;
59974;SDS011;62136;-35.664;-63.766;2023-02-04T03:16:46;2.85;;;2.40;;
59974;SDS011;62136;-35.664;-63.766;2023-02-04T03:19:14;3.88;;;2.50;;
59974;SDS011;62136;-35.664;-63.766;2023-02-04T03:21:41;2.83;;;2.55;;
59974;SDS011;62136;-35.664;-63.766;2023-02-04T03:24:11;3.40;;;2.58;;
59974;SDS011;62136;-35.664;-63.766;2023-02-04T03:26:38;2.78;;;2.40;;
59974;SDS011;62136;-35.664;-63.766;2023-02-04T03:29:06;3.10;;;2.67;;
59974;SDS011;62136;-35.664;-63.766;2023-02-04T03:31:37;3.88;;;2.80;;
59974;SDS011;62136;-35.664;-63.766;2023-02-04T03:34:04;3.95;;;2.65;;
59974;SDS011;62136;-35.664;-63.766;2023-02-04T03:36:31;3.90;;;2.55;;
59974;SDS011;62136;-35.664;-63.766;2023-02-04T03:38:58;3.08;;;2.53;;
59974;SDS011;62136;-35.664;-63.766;2023-02-04T03:41:26;4.20;;;2.38;;
59974;SDS011;62136;-35.664;-63.766;2023-02-04T03:43:57;3.08;;;2.53;;
59974;SDS011;62136;-35.664;-63.766;2023-02-04T03:46:24;3.53;;;2.40;;
59974;SDS011;62136;-35.664;-63.766;2023-02-04T03:48:51;3.53;;;2.40;;
59974;SDS011;62136;-35.664;-63.766;2023-02-04T03:51:18;3.60;;;2.35;;
59974;SDS011;62136;-35.664;-63.766;2023-02-04T03:56:14;3.45;;;2.58;;
59974;SDS011;62136;-35.664;-63.766;2023-02-04T03:58:41;3.30;;;2.50;;
59974;SDS011;62136;-35.664;-63.766;2023-02-04T04:01:08;2.50;;;2.17;;
59974;SDS011;62136;-35.664;-63.766;2023-02-04T04:03:35;2.33;;;2.13;;
59974;SDS011;62136;-35.664;-63.766;2023-02-04T04:06:05;2.92;;;2.15;;
59974;SDS011;62136;-35.664;-63.766;2023-02-04T04:08:34;4.30;;;2.20;;
59974;SDS011;62136;-35.664;-63.766;2023-02-04T04:11:13;2.97;;;2.67;;
59974;SDS011;62136;-35.664;-63.766;2023-02-04T04:13:43;2.95;;;2.25;;
59974;SDS011;62136;-35.664;-63.766;2023-02-04T04:16:10;3.63;;;2.35;;
59974;SDS011;62136;-35.664;-63.766;2023-02-04T04:18:37;3.00;;;2.40;;
59974;SDS011;62136;-35.664;-63.766;2023-02-04T04:21:04;2.22;;;2.03;;
59974;SDS011;62136;-35.664;-63.766;2023-02-04T04:23:32;2.50;;;2.30;;
59974;SDS011;62136;-35.664;-63.766;2023-02-04T04:25:59;4.28;;;2.42;;
59974;SDS011;62136;-35.664;-63.766;2023-02-04T04:28:26;3.20;;;2.63;;
59974;SDS011;62136;-35.664;-63.766;2023-02-04T04:30:53;3.20;;;2.30;;
59974;SDS011;62136;-35.664;-63.766;2023-02-04T04:33:20;4.20;;;2.40;;
59974;SDS011;62136;-35.664;-63.766;2023-02-04T04:35:47;3.88;;;2.55;;
59974;SDS011;62136;-35.664;-63.766;2023-02-04T04:38:14;3.55;;;2.40;;
59974;SDS011;62136;-35.664;-63.766;2023-02-04T04:40:41;3.97;;;2.22;;
59974;SDS011;62136;-35.664;-63.766;2023-02-04T04:43:08;2.40;;;2.20;;
59974;SDS011;62136;-35.664;-63.766;2023-02-04T04:45:35;4.22;;;2.35;;
59974;SDS011;62136;-35.664;-63.766;2023-02-04T04:48:02;3.28;;;2.28;;
59974;SDS011;62136;-35.664;-63.766;2023-02-04T04:50:29;2.55;;;2.08;;
59974;SDS011;62136;-35.664;-63.766;2023-02-04T04:52:56;3.15;;;2.25;;
59974;SDS011;62136;-35.664;-63.766;2023-02-04T04:55:23;3.78;;;2.28;;
59974;SDS011;62136;-35.664;-63.766;2023-02-04T04:57:50;3.90;;;2.47;;
59974;SDS011;62136;-35.664;-63.766;2023-02-04T05:00:18;4.57;;;2.38;;
59974;SDS011;62136;-35.664;-63.766;2023-02-04T05:02:46;4.18;;;2.50;;
59974;SDS011;62136;-35.664;-63.766;2023-02-04T05:05:13;3.35;;;2.50;;
59974;SDS011;62136;-35.664;-63.766;2023-02-04T05:07:40;3.00;;;2.35;;
59974;SDS011;62136;-35.664;-63.766;2023-02-04T05:10:07;2.90;;;2.38;;
59974;SDS011;62136;-35.664;-63.766;2023-02-04T05:12:35;3.75;;;2.20;;
59974;SDS011;62136;-35.664;-63.766;2023-02-04T05:15:05;4.55;;;2.30;;
59974;SDS011;62136;-35.664;-63.766;2023-02-04T05:17:32;2.95;;;2.13;;
59974;SDS011;62136;-35.664;-63.766;2023-02-04T05:19:59;2.80;;;1.90;;
59974;SDS011;62136;-35.664;-63.766;2023-02-04T05:22:26;3.70;;;2.15;;
59974;SDS011;62136;-35.664;-63.766;2023-02-04T05:24:53;1.90;;;1.80;;
59974;SDS011;62136;-35.664;-63.766;2023-02-04T05:27:20;2.55;;;2.20;;
59974;SDS011;62136;-35.664;-63.766;2023-02-04T05:29:47;2.85;;;2.10;;
59974;SDS011;62136;-35.664;-63.766;2023-02-04T05:32:14;3.13;;;2.30;;
59974;SDS011;62136;-35.664;-63.766;2023-02-04T05:34:41;3.90;;;2.10;;
59974;SDS011;62136;-35.664;-63.766;2023-02-04T05:37:08;3.92;;;2.10;;
59974;SDS011;62136;-35.664;-63.766;2023-02-04T05:39:35;2.72;;;2.22;;
59974;SDS011;62136;-35.664;-63.766;2023-02-04T05:42:02;3.13;;;1.80;;
59974;SDS011;62136;-35.664;-63.766;2023-02-04T05:44:29;2.80;;;2.03;;
59974;SDS011;62136;-35.664;-63.766;2023-02-04T05:46:56;3.63;;;2.10;;
59974;SDS011;62136;-35.664;-63.766;2023-02-04T05:49:23;4.70;;;2.30;;
59974;SDS011;62136;-35.664;-63.766;2023-02-04T05:51:50;3.22;;;2.15;;
59974;SDS011;62136;-35.664;-63.766;2023-02-04T05:54:17;2.75;;;2.20;;
59974;SDS011;62136;-35.664;-63.766;2023-02-04T05:56:45;2.60;;;1.92;;
59974;SDS011;62136;-35.664;-63.766;2023-02-04T05:59:12;2.88;;;2.05;;
59974;SDS011;62136;-35.664;-63.766;2023-02-04T06:01:39;3.75;;;1.95;;
59974;SDS011;62136;-35.664;-63.766;2023-02-04T06:04:06;3.20;;;2.17;;
59974;SDS011;62136;-35.664;-63.766;2023-02-04T06:06:33;2.80;;;2.30;;
59974;SDS011;62136;-35.664;-63.766;2023-02-04T06:09:12;2.72;;;1.88;;
59974;SDS011;62136;-35.664;-63.766;2023-02-04T06:11:39;3.38;;;1.85;;
59974;SDS011;62136;-35.664;-63.766;2023-02-04T06:14:06;2.53;;;1.83;;
59974;SDS011;62136;-35.664;-63.766;2023-02-04T06:16:35;2.80;;;2.00;;
59974;SDS011;62136;-35.664;-63.766;2023-02-04T06:19:02;1.75;;;1.60;;
59974;SDS011;62136;-35.664;-63.766;2023-02-04T06:21:29;2.85;;;2.00;;
59974;SDS011;62136;-35.664;-63.766;2023-02-04T06:23:56;2.97;;;1.70;;
59974;SDS011;62136;-35.664;-63.766;2023-02-04T06:26:23;2.15;;;1.60;;
59974;SDS011;62136;-35.664;-63.766;2023-02-04T06:28:50;2.88;;;1.95;;
59974;SDS011;62136;-35.664;-63.766;2023-02-04T06:31:17;2.90;;;1.90;;
59974;SDS011;62136;-35.664;-63.766;2023-02-04T06:33:44;2.65;;;1.90;;
59974;SDS011;62136;-35.664;-63.766;2023-02-04T06:36:11;3.72;;;2.00;;
59974;SDS011;62136;-35.664;-63.766;2023-02-04T06:38:38;2.88;;;2.17;;
59974;SDS011;62136;-35.664;-63.766;2023-02-04T06:41:05;2.67;;;2.13;;
59974;SDS011;62136;-35.664;-63.766;2023-02-04T06:43:32;3.65;;;1.88;;
59974;SDS011;62136;-35.664;-63.766;2023-02-04T06:45:59;3.10;;;1.90;;
59974;SDS011;62136;-35.664;-63.766;2023-02-04T06:48:26;2.25;;;1.98;;
59974;SDS011;62136;-35.664;-63.766;2023-02-04T06:50:53;2.58;;;1.77;;
59974;SDS011;62136;-35.664;-63.766;2023-02-04T06:53:20;2.90;;;1.70;;
59974;SDS011;62136;-35.664;-63.766;2023-02-04T06:55:48;2.35;;;1.92;;
59974;SDS011;62136;-35.664;-63.766;2023-02-04T06:58:16;1.90;;;1.63;;
59974;SDS011;62136;-35.664;-63.766;2023-02-04T07:00:43;3.28;;;2.00;;
59974;SDS011;62136;-35.664;-63.766;2023-02-04T07:03:10;3.47;;;1.70;;
59974;SDS011;62136;-35.664;-63.766;2023-02-04T07:05:37;3.55;;;1.92;;
59974;SDS011;62136;-35.664;-63.766;2023-02-04T07:08:04;2.00;;;1.65;;
59974;SDS011;62136;-35.664;-63.766;2023-02-04T07:10:31;2.85;;;1.73;;
59974;SDS011;62136;-35.664;-63.766;2023-02-04T07:12:58;3.88;;;1.40;;
59974;SDS011;62136;-35.664;-63.766;2023-02-04T07:15:25;2.05;;;1.80;;
59974;SDS011;62136;-35.664;-63.766;2023-02-04T07:17:52;2.17;;;1.67;;
59974;SDS011;62136;-35.664;-63.766;2023-02-04T07:20:19;2.00;;;1.73;;
59974;SDS011;62136;-35.664;-63.766;2023-02-04T07:22:46;3.50;;;1.70;;
59974;SDS011;62136;-35.664;-63.766;2023-02-04T07:25:13;1.98;;;1.70;;
59974;SDS011;62136;-35.664;-63.766;2023-02-04T07:27:42;2.60;;;1.80;;
59974;SDS011;62136;-35.664;-63.766;2023-02-04T07:30:09;2.22;;;1.83;;
59974;SDS011;62136;-35.664;-63.766;2023-02-04T07:32:36;1.90;;;1.70;;
59974;SDS011;62136;-35.664;-63.766;2023-02-04T07:35:04;2.45;;;1.45;;
59974;SDS011;62136;-35.664;-63.766;2023-02-04T07:37:31;3.50;;;1.73;;
59974;SDS011;62136;-35.664;-63.766;2023-02-04T07:39:58;2.00;;;1.75;;
59974;SDS011;62136;-35.664;-63.766;2023-02-04T07:42:25;2.10;;;1.40;;
59974;SDS011;62136;-35.664;-63.766;2023-02-04T07:44:52;2.00;;;1.60;;
59974;SDS011;62136;-35.664;-63.766;2023-02-04T07:47:20;2.58;;;1.63;;
59974;SDS011;62136;-35.664;-63.766;2023-02-04T07:49:47;2.95;;;1.58;;
59974;SDS011;62136;-35.664;-63.766;2023-02-04T07:52:15;3.60;;;1.60;;
59974;SDS011;62136;-35.664;-63.766;2023-02-04T07:54:42;2.80;;;1.60;;
59974;SDS011;62136;-35.664;-63.766;2023-02-04T07:57:09;1.70;;;1.60;;
59974;SDS011;62136;-35.664;-63.766;2023-02-04T07:59:36;3.58;;;1.80;;
59974;SDS011;62136;-35.664;-63.766;2023-02-04T08:02:03;2.70;;;1.50;;
59974;SDS011;62136;-35.664;-63.766;2023-02-04T08:04:30;2.42;;;1.60;;
59974;SDS011;62136;-35.664;-63.766;2023-02-04T08:06:57;1.63;;;1.52;;
59974;SDS011;62136;-35.664;-63.766;2023-02-04T08:09:24;2.22;;;1.52;;
59974;SDS011;62136;-35.664;-63.766;2023-02-04T08:11:52;1.65;;;1.55;;
59974;SDS011;62136;-35.664;-63.766;2023-02-04T08:14:19;2.30;;;1.40;;
59974;SDS011;62136;-35.664;-63.766;2023-02-04T08:16:46;1.75;;;1.63;;
59974;SDS011;62136;-35.664;-63.766;2023-02-04T08:19:13;1.95;;;1.48;;
59974;SDS011;62136;-35.664;-63.766;2023-02-04T08:21:43;2.50;;;1.50;;
59974;SDS011;62136;-35.664;-63.766;2023-02-04T08:24:11;1.88;;;1.77;;
59974;SDS011;62136;-35.664;-63.766;2023-02-04T08:26:42;1.60;;;1.50;;
59974;SDS011;62136;-35.664;-63.766;2023-02-04T08:29:09;2.05;;;1.50;;
59974;SDS011;62136;-35.664;-63.766;2023-02-04T08:31:36;3.67;;;1.27;;
59974;SDS011;62136;-35.664;-63.766;2023-02-04T08:34:04;1.98;;;1.40;;
59974;SDS011;62136;-35.664;-63.766;2023-02-04T08:36:32;1.92;;;1.42;;
59974;SDS011;62136;-35.664;-63.766;2023-02-04T08:38:59;3.00;;;1.52;;
59974;SDS011;62136;-35.664;-63.766;2023-02-04T08:41:26;1.33;;;1.13;;
59974;SDS011;62136;-35.664;-63.766;2023-02-04T08:43:53;1.35;;;1.25;;
59974;SDS011;62136;-35.664;-63.766;2023-02-04T08:46:20;1.92;;;1.48;;
59974;SDS011;62136;-35.664;-63.766;2023-02-04T08:48:47;1.63;;;1.50;;
59974;SDS011;62136;-35.664;-63.766;2023-02-04T08:51:14;1.63;;;1.27;;
59974;SDS011;62136;-35.664;-63.766;2023-02-04T08:53:41;2.08;;;1.60;;
59974;SDS011;62136;-35.664;-63.766;2023-02-04T08:56:08;1.40;;;1.30;;
59974;SDS011;62136;-35.664;-63.766;2023-02-04T08:58:40;2.08;;;1.50;;
59974;SDS011;62136;-35.664;-63.766;2023-02-04T09:01:07;1.65;;;1.48;;
59974;SDS011;62136;-35.664;-63.766;2023-02-04T09:03:36;2.05;;;1.88;;
59974;SDS011;62136;-35.664;-63.766;2023-02-04T09:06:03;3.40;;;1.60;;
59974;SDS011;62136;-35.664;-63.766;2023-02-04T09:08:31;1.70;;;1.60;;
59974;SDS011;62136;-35.664;-63.766;2023-02-04T09:10:58;2.38;;;1.58;;
59974;SDS011;62136;-35.664;-63.766;2023-02-04T09:13:25;2.40;;;1.38;;
59974;SDS011;62136;-35.664;-63.766;2023-02-04T09:15:52;1.80;;;1.70;;
59974;SDS011;62136;-35.664;-63.766;2023-02-04T09:18:19;1.63;;;1.40;;
59974;SDS011;62136;-35.664;-63.766;2023-02-04T09:20:47;1.30;;;1.20;;
59974;SDS011;62136;-35.664;-63.766;2023-02-04T09:23:14;1.75;;;1.65;;
59974;SDS011;62136;-35.664;-63.766;2023-02-04T09:25:42;1.50;;;1.40;;
59974;SDS011;62136;-35.664;-63.766;2023-02-04T09:28:11;1.60;;;1.10;;
59974;SDS011;62136;-35.664;-63.766;2023-02-04T09:30:42;1.48;;;1.38;;
59974;SDS011;62136;-35.664;-63.766;2023-02-04T09:33:10;1.50;;;1.40;;
59974;SDS011;62136;-35.664;-63.766;2023-02-04T09:35:39;1.33;;;1.20;;
59974;SDS011;62136;-35.664;-63.766;2023-02-04T09:38:06;1.80;;;1.33;;
59974;SDS011;62136;-35.664;-63.766;2023-02-04T09:40:34;1.52;;;1.30;;
59974;SDS011;62136;-35.664;-63.766;2023-02-04T09:43:05;2.15;;;1.65;;
59974;SDS011;62136;-35.664;-63.766;2023-02-04T09:45:36;2.38;;;1.50;;
59974;SDS011;62136;-35.664;-63.766;2023-02-04T09:48:03;2.22;;;1.52;;
59974;SDS011;62136;-35.664;-63.766;2023-02-04T09:50:31;1.70;;;1.33;;
59974;SDS011;62136;-35.664;-63.766;2023-02-04T09:53:03;1.98;;;1.40;;
59974;SDS011;62136;-35.664;-63.766;2023-02-04T09:55:35;2.03;;;1.33;;
59974;SDS011;62136;-35.664;-63.766;2023-02-04T09:58:10;1.40;;;1.27;;
59974;SDS011;62136;-35.664;-63.766;2023-02-04T10:00:42;1.45;;;1.35;;
59974;SDS011;62136;-35.664;-63.766;2023-02-04T10:03:13;1.77;;;1.30;;
59974;SDS011;62136;-35.664;-63.766;2023-02-04T10:05:43;1.52;;;1.33;;
59974;SDS011;62136;-35.664;-63.766;2023-02-04T10:08:18;1.40;;;1.30;;
59974;SDS011;62136;-35.664;-63.766;2023-02-04T10:10:49;1.80;;;1.35;;
59974;SDS011;62136;-35.664;-63.766;2023-02-04T10:13:26;1.63;;;1.40;;
59974;SDS011;62136;-35.664;-63.766;2023-02-04T10:15:58;2.10;;;1.45;;
59974;SDS011;62136;-35.664;-63.766;2023-02-04T10:18:30;2.28;;;1.52;;
59974;SDS011;62136;-35.664;-63.766;2023-02-04T10:21:11;2.58;;;1.38;;
59974;SDS011;62136;-35.664;-63.766;2023-02-04T10:23:42;2.08;;;1.30;;
59974;SDS011;62136;-35.664;-63.766;2023-02-04T10:26:13;1.92;;;1.40;;
59974;SDS011;62136;-35.664;-63.766;2023-02-04T10:28:41;2.47;;;1.35;;
59974;SDS011;62136;-35.664;-63.766;2023-02-04T10:31:30;1.52;;;1.27;;
59974;SDS011;62136;-35.664;-63.766;2023-02-04T10:36:42;1.40;;;1.15;;
59974;SDS011;62136;-35.664;-63.766;2023-02-04T10:39:14;1.40;;;1.30;;
59974;SDS011;62136;-35.664;-63.766;2023-02-04T10:41:47;1.20;;;1.10;;
59974;SDS011;62136;-35.664;-63.766;2023-02-04T10:44:18;1.52;;;1.35;;
59974;SDS011;62136;-35.664;-63.766;2023-02-04T10:46:59;1.75;;;1.48;;
59974;SDS011;62136;-35.664;-63.766;2023-02-04T10:49:27;1.70;;;1.23;;
59974;SDS011;62136;-35.664;-63.766;2023-02-04T10:51:54;1.63;;;1.50;;
59974;SDS011;62136;-35.664;-63.766;2023-02-04T10:54:25;1.55;;;1.25;;
59974;SDS011;62136;-35.664;-63.766;2023-02-04T10:59:54;2.30;;;1.33;;
59974;SDS011;62136;-35.664;-63.766;2023-02-04T11:05:24;1.45;;;1.17;;
59974;SDS011;62136;-35.664;-63.766;2023-02-04T11:07:56;1.45;;;1.30;;
59974;SDS011;62136;-35.664;-63.766;2023-02-04T11:10:26;1.60;;;1.45;;
59974;SDS011;62136;-35.664;-63.766;2023-02-04T11:15:36;1.55;;;1.20;;
59974;SDS011;62136;-35.664;-63.766;2023-02-04T11:18:08;1.42;;;1.30;;
59974;SDS011;62136;-35.664;-63.766;2023-02-04T11:20:47;1.30;;;1.20;;
59974;SDS011;62136;-35.664;-63.766;2023-02-04T11:23:29;1.48;;;1.08;;
59974;SDS011;62136;-35.664;-63.766;2023-02-04T11:31:28;1.45;;;1.20;;
59974;SDS011;62136;-35.664;-63.766;2023-02-04T11:37:04;1.15;;;1.05;;
59974;SDS011;62136;-35.664;-63.766;2023-02-04T11:39:40;1.30;;;1.20;;
59974;SDS011;62136;-35.664;-63.766;2023-02-04T11:42:14;1.90;;;1.10;;
59974;SDS011;62136;-35.664;-63.766;2023-02-04T11:45:00;1.17;;;0.93;;
59974;SDS011;62136;-35.664;-63.766;2023-02-04T11:47:34;1.25;;;1.02;;
59974;SDS011;62136;-35.664;-63.766;2023-02-04T11:53:02;1.25;;;1.15;;
59974;SDS011;62136;-35.664;-63.766;2023-02-04T11:55:31;1.50;;;1.17;;
59974;SDS011;62136;-35.664;-63.766;2023-02-04T11:58:00;1.00;;;1.00;;
59974;SDS011;62136;-35.664;-63.766;2023-02-04T12:00:29;1.27;;;1.08;;
59974;SDS011;62136;-35.664;-63.766;2023-02-04T12:02:58;1.17;;;1.08;;
59974;SDS011;62136;-35.664;-63.766;2023-02-04T12:05:34;1.25;;;0.95;;
59974;SDS011;62136;-35.664;-63.766;2023-02-04T12:11:00;1.00;;;0.90;;
59974;SDS011;62136;-35.664;-63.766;2023-02-04T12:13:30;2.03;;;1.30;;
59974;SDS011;62136;-35.664;-63.766;2023-02-04T12:15:59;1.15;;;1.05;;
59974;SDS011;62136;-35.664;-63.766;2023-02-04T12:18:29;1.10;;;1.00;;
59974;SDS011;62136;-35.664;-63.766;2023-02-04T12:20:58;1.50;;;1.17;;
59974;SDS011;62136;-35.664;-63.766;2023-02-04T12:23:26;1.98;;;1.35;;
59974;SDS011;62136;-35.664;-63.766;2023-02-04T12:25:54;1.05;;;0.90;;
59974;SDS011;62136;-35.664;-63.766;2023-02-04T12:28:22;1.58;;;1.00;;
59974;SDS011;62136;-35.664;-63.766;2023-02-04T12:30:49;1.17;;;1.00;;
59974;SDS011;62136;-35.664;-63.766;2023-02-04T12:33:16;1.98;;;1.20;;
59974;SDS011;62136;-35.664;-63.766;2023-02-04T12:35:43;1.10;;;1.00;;
59974;SDS011;62136;-35.664;-63.766;2023-02-04T12:38:10;1.77;;;1.10;;
59974;SDS011;62136;-35.664;-63.766;2023-02-04T12:40:37;1.10;;;1.00;;
59974;SDS011;62136;-35.664;-63.766;2023-02-04T12:43:05;1.27;;;1.08;;
59974;SDS011;62136;-35.664;-63.766;2023-02-04T12:45:35;1.20;;;1.00;;
59974;SDS011;62136;-35.664;-63.766;2023-02-04T12:48:04;1.38;;;1.02;;
59974;SDS011;62136;-35.664;-63.766;2023-02-04T12:50:31;1.27;;;1.10;;
59974;SDS011;62136;-35.664;-63.766;2023-02-04T12:52:58;1.30;;;1.20;;
59974;SDS011;62136;-35.664;-63.766;2023-02-04T12:55:26;1.73;;;1.08;;
59974;SDS011;62136;-35.664;-63.766;2023-02-04T12:57:54;1.17;;;1.00;;
59974;SDS011;62136;-35.664;-63.766;2023-02-04T13:00:22;1.38;;;0.98;;
59974;SDS011;62136;-35.664;-63.766;2023-02-04T13:02:49;1.42;;;1.33;;
59974;SDS011;62136;-35.664;-63.766;2023-02-04T13:05:16;1.52;;;1.20;;
59974;SDS011;62136;-35.664;-63.766;2023-02-04T13:07:43;1.02;;;0.93;;
59974;SDS011;62136;-35.664;-63.766;2023-02-04T13:10:10;1.02;;;1.02;;
59974;SDS011;62136;-35.664;-63.766;2023-02-04T13:12:40;1.65;;;1.00;;
59974;SDS011;62136;-35.664;-63.766;2023-02-04T13:15:08;1.83;;;1.00;;
59974;SDS011;62136;-35.664;-63.766;2023-02-04T13:17:35;1.48;;;1.00;;
59974;SDS011;62136;-35.664;-63.766;2023-02-04T13:20:02;1.38;;;1.10;;
59974;SDS011;62136;-35.664;-63.766;2023-02-04T13:22:30;1.27;;;1.17;;
59974;SDS011;62136;-35.664;-63.766;2023-02-04T13:24:57;2.17;;;1.50;;
59974;SDS011;62136;-35.664;-63.766;2023-02-04T13:27:24;1.58;;;1.00;;
59974;SDS011;62136;-35.664;-63.766;2023-02-04T13:29:52;1.10;;;1.00;;
59974;SDS011;62136;-35.664;-63.766;2023-02-04T13:32:19;1.52;;;1.20;;
59974;SDS011;62136;-35.664;-63.766;2023-02-04T13:34:46;1.50;;;0.90;;
59974;SDS011;62136;-35.664;-63.766;2023-02-04T13:37:13;1.05;;;0.95;;
59974;SDS011;62136;-35.664;-63.766;2023-02-04T13:39:40;1.00;;;0.90;;
59974;SDS011;62136;-35.664;-63.766;2023-02-04T13:42:07;1.25;;;1.15;;
59974;SDS011;62136;-35.664;-63.766;2023-02-04T13:44:34;1.13;;;1.02;;
59974;SDS011;62136;-35.664;-63.766;2023-02-04T13:47:01;1.02;;;0.93;;
59974;SDS011;62136;-35.664;-63.766;2023-02-04T13:49:28;0.80;;;0.80;;
59974;SDS011;62136;-35.664;-63.766;2023-02-04T13:51:55;0.85;;;0.85;;
59974;SDS011;62136;-35.664;-63.766;2023-02-04T13:54:22;1.38;;;1.05;;
59974;SDS011;62136;-35.664;-63.766;2023-02-04T13:56:50;1.65;;;0.90;;
59974;SDS011;62136;-35.664;-63.766;2023-02-04T13:59:17;1.17;;;0.90;;
59974;SDS011;62136;-35.664;-63.766;2023-02-04T14:01:44;1.00;;;0.90;;
59974;SDS011;62136;-35.664;-63.766;2023-02-04T14:04:11;0.98;;;0.98;;
59974;SDS011;62136;-35.664;-63.766;2023-02-04T14:06:39;1.20;;;1.10;;
59974;SDS011;62136;-35.664;-63.766;2023-02-04T14:09:08;0.85;;;0.85;;
59974;SDS011;62136;-35.664;-63.766;2023-02-04T14:11:39;1.23;;;0.90;;
59974;SDS011;62136;-35.664;-63.766;2023-02-04T14:14:06;1.30;;;0.90;;
59974;SDS011;62136;-35.664;-63.766;2023-02-04T14:16:33;1.30;;;1.20;;
59974;SDS011;62136;-35.664;-63.766;2023-02-04T14:19:00;1.02;;;0.90;;
59974;SDS011;62136;-35.664;-63.766;2023-02-04T14:21:27;1.15;;;1.05;;
59974;SDS011;62136;-35.664;-63.766;2023-02-04T14:23:54;0.85;;;0.82;;
59974;SDS011;62136;-35.664;-63.766;2023-02-04T14:26:21;2.10;;;0.90;;
59974;SDS011;62136;-35.664;-63.766;2023-02-04T14:28:49;1.42;;;1.20;;
59974;SDS011;62136;-35.664;-63.766;2023-02-04T14:31:17;1.20;;;1.10;;
59974;SDS011;62136;-35.664;-63.766;2023-02-04T14:33:44;2.53;;;1.27;;
59974;SDS011;62136;-35.664;-63.766;2023-02-04T14:36:11;1.15;;;0.68;;
59974;SDS011;62136;-35.664;-63.766;2023-02-04T14:38:38;0.90;;;0.90;;
59974;SDS011;62136;-35.664;-63.766;2023-02-04T14:41:05;1.02;;;1.00;;
59974;SDS011;62136;-35.664;-63.766;2023-02-04T14:43:32;1.42;;;0.98;;